sensor_id;sensor_type;location;lat;lon;timestamp;P1;durP1;ratioP1;P2;durP2;ratioP2
42704;SDS011;28342;42.594;23.414;2023-03-24T00:02:29;22.55;;;13.43;;
42704;SDS011;28342;42.594;23.414;2023-03-24T00:05:35;23.80;;;13.45;;
42704;SDS011;28342;42.594;23.414;2023-03-24T00:09:02;18.60;;;10.73;;
42704;SDS011;28342;42.594;23.414;2023-03-24T00:12:01;17.95;;;10.80;;
42704;SDS011;28342;42.594;23.414;2023-03-24T00:15:17;16.75;;;10.13;;
42704;SDS011;28342;42.594;23.414;2023-03-24T00:19:00;15.18;;;9.23;;
42704;SDS011;28342;42.594;23.414;2023-03-24T00:21:56;16.13;;;10.00;;
42704;SDS011;28342;42.594;23.414;2023-03-24T00:25:31;17.88;;;8.63;;
42704;SDS011;28342;42.594;23.414;2023-03-24T00:29:32;14.02;;;9.73;;
42704;SDS011;28342;42.594;23.414;2023-03-24T00:36:09;15.65;;;8.40;;
42704;SDS011;28342;42.594;23.414;2023-03-24T00:39:28;15.68;;;8.10;;
42704;SDS011;28342;42.594;23.414;2023-03-24T00:42:58;11.63;;;7.88;;
42704;SDS011;28342;42.594;23.414;2023-03-24T00:45:56;12.00;;;8.27;;
42704;SDS011;28342;42.594;23.414;2023-03-24T00:49:12;12.75;;;7.72;;
42704;SDS011;28342;42.594;23.414;2023-03-24T00:52:48;15.52;;;8.57;;
42704;SDS011;28342;42.594;23.414;2023-03-24T00:55:41;12.80;;;7.68;;
42704;SDS011;28342;42.594;23.414;2023-03-24T00:58:59;17.25;;;7.55;;
42704;SDS011;28342;42.594;23.414;2023-03-24T01:02:32;12.77;;;7.80;;
42704;SDS011;28342;42.594;23.414;2023-03-24T01:05:03;12.80;;;7.50;;
42704;SDS011;28342;42.594;23.414;2023-03-24T01:07:57;10.25;;;7.20;;
42704;SDS011;28342;42.594;23.414;2023-03-24T01:10:52;18.00;;;10.85;;
42704;SDS011;28342;42.594;23.414;2023-03-24T01:14:17;20.55;;;9.50;;
42704;SDS011;28342;42.594;23.414;2023-03-24T01:17:14;14.80;;;8.98;;
42704;SDS011;28342;42.594;23.414;2023-03-24T01:20:54;16.30;;;8.50;;
42704;SDS011;28342;42.594;23.414;2023-03-24T01:24:15;12.68;;;7.25;;
42704;SDS011;28342;42.594;23.414;2023-03-24T01:27:28;13.45;;;7.53;;
42704;SDS011;28342;42.594;23.414;2023-03-24T01:30:57;12.48;;;8.10;;
42704;SDS011;28342;42.594;23.414;2023-03-24T01:34:35;13.38;;;7.00;;
42704;SDS011;28342;42.594;23.414;2023-03-24T01:37:55;13.32;;;7.88;;
42704;SDS011;28342;42.594;23.414;2023-03-24T01:41:21;13.27;;;8.30;;
42704;SDS011;28342;42.594;23.414;2023-03-24T01:44:23;18.10;;;9.93;;
42704;SDS011;28342;42.594;23.414;2023-03-24T01:47:45;15.85;;;9.15;;
42704;SDS011;28342;42.594;23.414;2023-03-24T01:50:44;16.85;;;9.70;;
42704;SDS011;28342;42.594;23.414;2023-03-24T02:00:07;17.85;;;10.20;;
42704;SDS011;28342;42.594;23.414;2023-03-24T02:03:44;20.17;;;11.00;;
42704;SDS011;28342;42.594;23.414;2023-03-24T02:10:37;23.02;;;12.48;;
42704;SDS011;28342;42.594;23.414;2023-03-24T02:14:07;20.70;;;11.13;;
42704;SDS011;28342;42.594;23.414;2023-03-24T02:24:12;20.45;;;11.88;;
42704;SDS011;28342;42.594;23.414;2023-03-24T02:34:03;25.73;;;12.90;;
42704;SDS011;28342;42.594;23.414;2023-03-24T02:41:00;23.50;;;13.55;;
42704;SDS011;28342;42.594;23.414;2023-03-24T02:43:58;20.50;;;13.05;;
42704;SDS011;28342;42.594;23.414;2023-03-24T02:47:27;22.33;;;14.27;;
42704;SDS011;28342;42.594;23.414;2023-03-24T02:50:38;19.83;;;11.80;;
42704;SDS011;28342;42.594;23.414;2023-03-24T02:53:39;20.05;;;12.35;;
42704;SDS011;28342;42.594;23.414;2023-03-24T02:56:41;22.10;;;11.65;;
42704;SDS011;28342;42.594;23.414;2023-03-24T03:00:13;20.63;;;12.68;;
42704;SDS011;28342;42.594;23.414;2023-03-24T03:03:54;17.73;;;11.65;;
42704;SDS011;28342;42.594;23.414;2023-03-24T03:07:07;19.90;;;11.98;;
42704;SDS011;28342;42.594;23.414;2023-03-24T03:10:14;18.05;;;11.02;;
42704;SDS011;28342;42.594;23.414;2023-03-24T03:13:56;16.38;;;10.07;;
42704;SDS011;28342;42.594;23.414;2023-03-24T03:17:24;21.88;;;10.73;;
42704;SDS011;28342;42.594;23.414;2023-03-24T03:20:18;17.67;;;10.55;;
42704;SDS011;28342;42.594;23.414;2023-03-24T03:23:52;19.67;;;10.95;;
42704;SDS011;28342;42.594;23.414;2023-03-24T03:27:39;19.55;;;10.65;;
42704;SDS011;28342;42.594;23.414;2023-03-24T03:30:56;18.50;;;10.55;;
42704;SDS011;28342;42.594;23.414;2023-03-24T03:47:57;16.92;;;10.98;;
42704;SDS011;28342;42.594;23.414;2023-03-24T03:51:39;18.73;;;10.98;;
42704;SDS011;28342;42.594;23.414;2023-03-24T03:55:07;21.10;;;12.07;;
42704;SDS011;28342;42.594;23.414;2023-03-24T04:01:35;19.20;;;11.52;;
42704;SDS011;28342;42.594;23.414;2023-03-24T04:24:48;22.17;;;12.65;;
42704;SDS011;28342;42.594;23.414;2023-03-24T04:28:22;20.27;;;11.68;;
42704;SDS011;28342;42.594;23.414;2023-03-24T04:31:20;20.00;;;11.35;;
42704;SDS011;28342;42.594;23.414;2023-03-24T04:34:20;23.08;;;11.80;;
42704;SDS011;28342;42.594;23.414;2023-03-24T04:36:59;17.08;;;10.73;;
42704;SDS011;28342;42.594;23.414;2023-03-24T04:39:41;19.52;;;12.48;;
42704;SDS011;28342;42.594;23.414;2023-03-24T04:42:38;18.50;;;10.50;;
42704;SDS011;28342;42.594;23.414;2023-03-24T04:45:17;19.55;;;10.63;;
42704;SDS011;28342;42.594;23.414;2023-03-24T04:48:17;19.02;;;10.82;;
42704;SDS011;28342;42.594;23.414;2023-03-24T04:51:01;18.00;;;10.57;;
42704;SDS011;28342;42.594;23.414;2023-03-24T04:53:37;19.70;;;10.43;;
42704;SDS011;28342;42.594;23.414;2023-03-24T04:58:57;21.10;;;11.18;;
42704;SDS011;28342;42.594;23.414;2023-03-24T05:01:25;19.55;;;10.77;;
42704;SDS011;28342;42.594;23.414;2023-03-24T05:03:59;16.80;;;10.52;;
42704;SDS011;28342;42.594;23.414;2023-03-24T05:06:29;21.00;;;11.65;;
42704;SDS011;28342;42.594;23.414;2023-03-24T05:09:22;19.42;;;10.88;;
42704;SDS011;28342;42.594;23.414;2023-03-24T05:11:56;19.85;;;11.00;;
42704;SDS011;28342;42.594;23.414;2023-03-24T05:14:21;20.08;;;11.73;;
42704;SDS011;28342;42.594;23.414;2023-03-24T05:16:53;19.98;;;10.82;;
42704;SDS011;28342;42.594;23.414;2023-03-24T05:19:20;17.67;;;10.18;;
42704;SDS011;28342;42.594;23.414;2023-03-24T05:22:18;19.17;;;11.57;;
42704;SDS011;28342;42.594;23.414;2023-03-24T05:24:49;18.02;;;10.38;;
42704;SDS011;28342;42.594;23.414;2023-03-24T05:27:18;20.25;;;11.48;;
42704;SDS011;28342;42.594;23.414;2023-03-24T05:30:01;19.42;;;10.55;;
42704;SDS011;28342;42.594;23.414;2023-03-24T05:39:36;18.80;;;11.52;;
42704;SDS011;28342;42.594;23.414;2023-03-24T05:45:19;18.75;;;11.73;;
42704;SDS011;28342;42.594;23.414;2023-03-24T05:48:09;18.42;;;10.93;;
42704;SDS011;28342;42.594;23.414;2023-03-24T05:51:00;16.75;;;10.05;;
42704;SDS011;28342;42.594;23.414;2023-03-24T06:02:47;18.38;;;9.73;;
42704;SDS011;28342;42.594;23.414;2023-03-24T06:05:15;16.80;;;10.05;;
42704;SDS011;28342;42.594;23.414;2023-03-24T06:07:55;15.55;;;9.00;;
42704;SDS011;28342;42.594;23.414;2023-03-24T06:11:24;18.42;;;9.15;;
42704;SDS011;28342;42.594;23.414;2023-03-24T06:14:48;17.33;;;9.50;;
42704;SDS011;28342;42.594;23.414;2023-03-24T06:21:52;16.35;;;9.85;;
42704;SDS011;28342;42.594;23.414;2023-03-24T06:24:18;15.45;;;9.90;;
42704;SDS011;28342;42.594;23.414;2023-03-24T06:26:45;14.23;;;8.73;;
42704;SDS011;28342;42.594;23.414;2023-03-24T06:29:14;18.27;;;9.88;;
42704;SDS011;28342;42.594;23.414;2023-03-24T06:31:47;18.42;;;9.00;;
42704;SDS011;28342;42.594;23.414;2023-03-24T06:34:12;13.55;;;8.73;;
42704;SDS011;28342;42.594;23.414;2023-03-24T06:36:38;39.50;;;18.40;;
42704;SDS011;28342;42.594;23.414;2023-03-24T06:39:08;17.52;;;9.25;;
42704;SDS011;28342;42.594;23.414;2023-03-24T06:41:34;19.52;;;9.00;;
42704;SDS011;28342;42.594;23.414;2023-03-24T06:43:59;16.15;;;9.15;;
42704;SDS011;28342;42.594;23.414;2023-03-24T06:50:17;15.77;;;8.00;;
42704;SDS011;28342;42.594;23.414;2023-03-24T06:53:08;15.93;;;9.30;;
42704;SDS011;28342;42.594;23.414;2023-03-24T06:56:01;15.13;;;9.05;;
42704;SDS011;28342;42.594;23.414;2023-03-24T06:59:13;13.32;;;8.27;;
42704;SDS011;28342;42.594;23.414;2023-03-24T07:01:42;13.55;;;8.35;;
42704;SDS011;28342;42.594;23.414;2023-03-24T07:05:16;12.32;;;8.25;;
42704;SDS011;28342;42.594;23.414;2023-03-24T07:08:56;14.38;;;8.55;;
42704;SDS011;28342;42.594;23.414;2023-03-24T07:12:06;13.10;;;8.13;;
42704;SDS011;28342;42.594;23.414;2023-03-24T07:15:39;12.65;;;8.20;;
42704;SDS011;28342;42.594;23.414;2023-03-24T07:19:01;11.95;;;7.65;;
42704;SDS011;28342;42.594;23.414;2023-03-24T07:22:26;11.88;;;7.63;;
42704;SDS011;28342;42.594;23.414;2023-03-24T07:25:42;12.02;;;7.03;;
42704;SDS011;28342;42.594;23.414;2023-03-24T07:28:08;12.75;;;7.85;;
42704;SDS011;28342;42.594;23.414;2023-03-24T07:30:34;13.32;;;7.90;;
42704;SDS011;28342;42.594;23.414;2023-03-24T07:33:00;16.13;;;8.18;;
42704;SDS011;28342;42.594;23.414;2023-03-24T07:35:30;12.00;;;8.15;;
42704;SDS011;28342;42.594;23.414;2023-03-24T07:37:59;14.75;;;8.82;;
42704;SDS011;28342;42.594;23.414;2023-03-24T07:40:25;12.25;;;8.23;;
42704;SDS011;28342;42.594;23.414;2023-03-24T07:42:51;13.98;;;8.25;;
42704;SDS011;28342;42.594;23.414;2023-03-24T07:45:16;15.82;;;8.45;;
42704;SDS011;28342;42.594;23.414;2023-03-24T07:47:42;15.57;;;9.30;;
42704;SDS011;28342;42.594;23.414;2023-03-24T07:50:10;9.80;;;6.75;;
42704;SDS011;28342;42.594;23.414;2023-03-24T07:52:36;23.33;;;8.00;;
42704;SDS011;28342;42.594;23.414;2023-03-24T07:55:03;18.85;;;11.00;;
42704;SDS011;28342;42.594;23.414;2023-03-24T07:57:29;21.95;;;12.02;;
42704;SDS011;28342;42.594;23.414;2023-03-24T07:59:55;23.83;;;12.75;;
42704;SDS011;28342;42.594;23.414;2023-03-24T08:02:20;18.35;;;12.18;;
42704;SDS011;28342;42.594;23.414;2023-03-24T08:04:49;19.25;;;11.48;;
42704;SDS011;28342;42.594;23.414;2023-03-24T08:07:18;18.42;;;10.68;;
42704;SDS011;28342;42.594;23.414;2023-03-24T08:09:44;20.17;;;12.10;;
42704;SDS011;28342;42.594;23.414;2023-03-24T08:12:09;18.90;;;12.70;;
42704;SDS011;28342;42.594;23.414;2023-03-24T08:14:35;22.20;;;13.02;;
42704;SDS011;28342;42.594;23.414;2023-03-24T08:17:00;19.33;;;11.30;;
42704;SDS011;28342;42.594;23.414;2023-03-24T08:19:26;19.02;;;10.95;;
42704;SDS011;28342;42.594;23.414;2023-03-24T08:21:51;14.63;;;10.68;;
42704;SDS011;28342;42.594;23.414;2023-03-24T08:24:17;16.70;;;10.40;;
42704;SDS011;28342;42.594;23.414;2023-03-24T08:26:44;13.60;;;9.32;;
42704;SDS011;28342;42.594;23.414;2023-03-24T08:29:10;11.57;;;8.07;;
42704;SDS011;28342;42.594;23.414;2023-03-24T08:31:36;15.73;;;9.50;;
42704;SDS011;28342;42.594;23.414;2023-03-24T08:34:02;14.77;;;10.35;;
42704;SDS011;28342;42.594;23.414;2023-03-24T08:36:29;17.38;;;11.68;;
42704;SDS011;28342;42.594;23.414;2023-03-24T08:38:54;20.45;;;12.30;;
42704;SDS011;28342;42.594;23.414;2023-03-24T08:41:21;24.00;;;12.88;;
42704;SDS011;28342;42.594;23.414;2023-03-24T08:43:54;23.33;;;12.15;;
42704;SDS011;28342;42.594;23.414;2023-03-24T08:46:20;20.58;;;13.52;;
42704;SDS011;28342;42.594;23.414;2023-03-24T08:48:46;22.58;;;11.68;;
42704;SDS011;28342;42.594;23.414;2023-03-24T08:51:15;17.20;;;10.48;;
42704;SDS011;28342;42.594;23.414;2023-03-24T08:53:41;20.30;;;11.05;;
42704;SDS011;28342;42.594;23.414;2023-03-24T08:56:07;17.30;;;10.43;;
42704;SDS011;28342;42.594;23.414;2023-03-24T08:58:34;19.10;;;10.15;;
42704;SDS011;28342;42.594;23.414;2023-03-24T09:00:59;17.77;;;10.00;;
42704;SDS011;28342;42.594;23.414;2023-03-24T09:03:25;22.75;;;9.77;;
42704;SDS011;28342;42.594;23.414;2023-03-24T09:05:53;16.27;;;10.40;;
42704;SDS011;28342;42.594;23.414;2023-03-24T09:08:23;12.30;;;8.88;;
42704;SDS011;28342;42.594;23.414;2023-03-24T09:10:49;14.63;;;9.00;;
42704;SDS011;28342;42.594;23.414;2023-03-24T09:13:15;13.18;;;8.25;;
42704;SDS011;28342;42.594;23.414;2023-03-24T09:16:03;12.93;;;9.23;;
42704;SDS011;28342;42.594;23.414;2023-03-24T09:18:29;15.45;;;8.65;;
42704;SDS011;28342;42.594;23.414;2023-03-24T09:20:54;12.27;;;8.18;;
42704;SDS011;28342;42.594;23.414;2023-03-24T09:23:20;13.55;;;9.40;;
42704;SDS011;28342;42.594;23.414;2023-03-24T09:25:49;13.77;;;9.10;;
42704;SDS011;28342;42.594;23.414;2023-03-24T09:28:16;12.95;;;9.00;;
42704;SDS011;28342;42.594;23.414;2023-03-24T09:30:42;10.85;;;7.78;;
42704;SDS011;28342;42.594;23.414;2023-03-24T09:33:08;9.77;;;6.93;;
42704;SDS011;28342;42.594;23.414;2023-03-24T09:35:33;11.40;;;6.95;;
42704;SDS011;28342;42.594;23.414;2023-03-24T09:37:59;12.93;;;7.38;;
42704;SDS011;28342;42.594;23.414;2023-03-24T09:40:29;10.50;;;7.25;;
42704;SDS011;28342;42.594;23.414;2023-03-24T09:43:03;10.35;;;7.38;;
42704;SDS011;28342;42.594;23.414;2023-03-24T09:46:03;14.48;;;8.13;;
42704;SDS011;28342;42.594;23.414;2023-03-24T09:48:44;12.88;;;7.70;;
42704;SDS011;28342;42.594;23.414;2023-03-24T09:53:55;14.18;;;7.90;;
42704;SDS011;28342;42.594;23.414;2023-03-24T09:56:28;14.93;;;8.23;;
42704;SDS011;28342;42.594;23.414;2023-03-24T09:59:37;12.27;;;7.95;;
42704;SDS011;28342;42.594;23.414;2023-03-24T10:01:45;12.40;;;8.20;;
42704;SDS011;28342;42.594;23.414;2023-03-24T10:04:20;10.35;;;7.53;;
42704;SDS011;28342;42.594;23.414;2023-03-24T10:06:49;8.52;;;6.53;;
42704;SDS011;28342;42.594;23.414;2023-03-24T10:09:27;11.02;;;7.53;;
42704;SDS011;28342;42.594;23.414;2023-03-24T10:14:51;12.75;;;8.73;;
42704;SDS011;28342;42.594;23.414;2023-03-24T10:20:04;8.80;;;6.18;;
42704;SDS011;28342;42.594;23.414;2023-03-24T10:27:56;8.10;;;5.28;;
42704;SDS011;28342;42.594;23.414;2023-03-24T10:30:25;9.27;;;6.00;;
42704;SDS011;28342;42.594;23.414;2023-03-24T10:32:54;8.65;;;5.43;;
42704;SDS011;28342;42.594;23.414;2023-03-24T10:37:51;7.97;;;6.13;;
42704;SDS011;28342;42.594;23.414;2023-03-24T10:40:21;8.45;;;4.90;;
42704;SDS011;28342;42.594;23.414;2023-03-24T10:42:53;7.15;;;4.57;;
42704;SDS011;28342;42.594;23.414;2023-03-24T10:45:23;7.50;;;4.95;;
42704;SDS011;28342;42.594;23.414;2023-03-24T10:47:52;7.70;;;4.63;;
42704;SDS011;28342;42.594;23.414;2023-03-24T10:50:22;8.90;;;5.63;;
42704;SDS011;28342;42.594;23.414;2023-03-24T10:52:49;6.45;;;4.80;;
42704;SDS011;28342;42.594;23.414;2023-03-24T10:55:19;13.00;;;4.97;;
42704;SDS011;28342;42.594;23.414;2023-03-24T10:57:52;10.38;;;5.15;;
42704;SDS011;28342;42.594;23.414;2023-03-24T11:05:32;9.48;;;5.80;;
42704;SDS011;28342;42.594;23.414;2023-03-24T11:10:41;9.73;;;6.32;;
42704;SDS011;28342;42.594;23.414;2023-03-24T11:13:15;13.35;;;7.10;;
42704;SDS011;28342;42.594;23.414;2023-03-24T11:15:51;11.20;;;6.40;;
42704;SDS011;28342;42.594;23.414;2023-03-24T11:18:20;12.50;;;7.30;;
42704;SDS011;28342;42.594;23.414;2023-03-24T11:20:48;12.55;;;6.50;;
42704;SDS011;28342;42.594;23.414;2023-03-24T11:26:02;11.30;;;6.88;;
42704;SDS011;28342;42.594;23.414;2023-03-24T11:28:34;13.23;;;7.15;;
42704;SDS011;28342;42.594;23.414;2023-03-24T11:31:10;11.35;;;7.00;;
42704;SDS011;28342;42.594;23.414;2023-03-24T11:38:58;9.38;;;6.85;;
42704;SDS011;28342;42.594;23.414;2023-03-24T11:41:40;19.02;;;6.13;;
42704;SDS011;28342;42.594;23.414;2023-03-24T11:44:24;10.07;;;6.10;;
42704;SDS011;28342;42.594;23.414;2023-03-24T11:47:04;10.30;;;5.55;;
42704;SDS011;28342;42.594;23.414;2023-03-24T11:49:32;10.65;;;6.28;;
42704;SDS011;28342;42.594;23.414;2023-03-24T11:52:06;11.88;;;6.70;;
42704;SDS011;28342;42.594;23.414;2023-03-24T11:54:44;16.15;;;6.68;;
42704;SDS011;28342;42.594;23.414;2023-03-24T11:57:13;9.10;;;6.68;;
42704;SDS011;28342;42.594;23.414;2023-03-24T11:59:48;9.20;;;7.15;;
42704;SDS011;28342;42.594;23.414;2023-03-24T12:02:47;10.07;;;7.28;;
42704;SDS011;28342;42.594;23.414;2023-03-24T12:05:25;13.20;;;8.30;;
42704;SDS011;28342;42.594;23.414;2023-03-24T12:08:09;12.55;;;7.55;;
42704;SDS011;28342;42.594;23.414;2023-03-24T12:13:15;9.95;;;6.35;;
42704;SDS011;28342;42.594;23.414;2023-03-24T12:15:49;15.00;;;6.20;;
42704;SDS011;28342;42.594;23.414;2023-03-24T12:18:37;12.93;;;7.18;;
42704;SDS011;28342;42.594;23.414;2023-03-24T12:21:41;10.77;;;7.00;;
42704;SDS011;28342;42.594;23.414;2023-03-24T12:26:57;9.82;;;7.35;;
42704;SDS011;28342;42.594;23.414;2023-03-24T12:32:55;10.48;;;6.68;;
42704;SDS011;28342;42.594;23.414;2023-03-24T12:35:46;14.98;;;7.30;;
42704;SDS011;28342;42.594;23.414;2023-03-24T12:38:24;14.77;;;7.85;;
42704;SDS011;28342;42.594;23.414;2023-03-24T12:54:08;12.93;;;6.90;;
42704;SDS011;28342;42.594;23.414;2023-03-24T12:57:06;10.85;;;6.95;;
42704;SDS011;28342;42.594;23.414;2023-03-24T12:59:40;18.30;;;7.72;;
42704;SDS011;28342;42.594;23.414;2023-03-24T13:02:10;16.23;;;7.18;;
42704;SDS011;28342;42.594;23.414;2023-03-24T13:04:48;13.50;;;7.55;;
42704;SDS011;28342;42.594;23.414;2023-03-24T13:07:18;11.85;;;8.02;;
42704;SDS011;28342;42.594;23.414;2023-03-24T13:09:56;10.55;;;6.80;;
42704;SDS011;28342;42.594;23.414;2023-03-24T13:18:20;11.48;;;6.13;;
42704;SDS011;28342;42.594;23.414;2023-03-24T13:26:14;12.68;;;5.72;;
42704;SDS011;28342;42.594;23.414;2023-03-24T13:31:38;9.20;;;6.07;;
42704;SDS011;28342;42.594;23.414;2023-03-24T13:34:21;12.23;;;6.35;;
42704;SDS011;28342;42.594;23.414;2023-03-24T13:36:53;11.70;;;6.35;;
42704;SDS011;28342;42.594;23.414;2023-03-24T13:39:24;9.15;;;5.57;;
42704;SDS011;28342;42.594;23.414;2023-03-24T13:41:52;9.68;;;6.20;;
42704;SDS011;28342;42.594;23.414;2023-03-24T13:44:21;9.82;;;5.97;;
42704;SDS011;28342;42.594;23.414;2023-03-24T13:49:30;15.27;;;6.60;;
42704;SDS011;28342;42.594;23.414;2023-03-24T13:51:56;13.30;;;7.05;;
42704;SDS011;28342;42.594;23.414;2023-03-24T13:54:27;14.40;;;6.15;;
42704;SDS011;28342;42.594;23.414;2023-03-24T13:59:29;12.32;;;5.38;;
42704;SDS011;28342;42.594;23.414;2023-03-24T14:10:42;11.88;;;4.95;;
42704;SDS011;28342;42.594;23.414;2023-03-24T14:23:30;6.28;;;4.53;;
42704;SDS011;28342;42.594;23.414;2023-03-24T14:26:04;9.50;;;5.05;;
42704;SDS011;28342;42.594;23.414;2023-03-24T14:28:35;8.38;;;4.22;;
42704;SDS011;28342;42.594;23.414;2023-03-24T14:33:42;7.03;;;4.45;;
42704;SDS011;28342;42.594;23.414;2023-03-24T14:36:35;8.10;;;4.38;;
42704;SDS011;28342;42.594;23.414;2023-03-24T14:39:10;5.93;;;4.30;;
42704;SDS011;28342;42.594;23.414;2023-03-24T14:41:36;8.70;;;4.22;;
42704;SDS011;28342;42.594;23.414;2023-03-24T14:44:05;6.85;;;3.88;;
42704;SDS011;28342;42.594;23.414;2023-03-24T14:46:37;5.85;;;3.70;;
42704;SDS011;28342;42.594;23.414;2023-03-24T14:51:51;8.73;;;3.95;;
42704;SDS011;28342;42.594;23.414;2023-03-24T14:57:08;8.82;;;4.22;;
42704;SDS011;28342;42.594;23.414;2023-03-24T15:02:48;5.45;;;3.38;;
42704;SDS011;28342;42.594;23.414;2023-03-24T15:07:58;13.55;;;4.82;;
42704;SDS011;28342;42.594;23.414;2023-03-24T15:13:31;14.65;;;6.32;;
42704;SDS011;28342;42.594;23.414;2023-03-24T15:18:35;14.02;;;5.88;;
42704;SDS011;28342;42.594;23.414;2023-03-24T15:21:32;7.32;;;4.70;;
42704;SDS011;28342;42.594;23.414;2023-03-24T15:23:57;9.85;;;4.47;;
42704;SDS011;28342;42.594;23.414;2023-03-24T15:26:26;6.85;;;4.85;;
42704;SDS011;28342;42.594;23.414;2023-03-24T15:28:55;12.95;;;5.35;;
42704;SDS011;28342;42.594;23.414;2023-03-24T15:31:21;17.75;;;5.60;;
42704;SDS011;28342;42.594;23.414;2023-03-24T15:33:49;12.95;;;5.50;;
42704;SDS011;28342;42.594;23.414;2023-03-24T15:36:15;16.17;;;6.18;;
42704;SDS011;28342;42.594;23.414;2023-03-24T15:38:46;22.65;;;8.65;;
42704;SDS011;28342;42.594;23.414;2023-03-24T15:41:14;19.00;;;8.43;;
42704;SDS011;28342;42.594;23.414;2023-03-24T15:43:43;20.45;;;8.23;;
42704;SDS011;28342;42.594;23.414;2023-03-24T15:46:29;12.07;;;6.30;;
42704;SDS011;28342;42.594;23.414;2023-03-24T15:48:56;16.10;;;7.85;;
42704;SDS011;28342;42.594;23.414;2023-03-24T15:54:23;29.50;;;14.40;;
42704;SDS011;28342;42.594;23.414;2023-03-24T15:59:34;37.08;;;20.48;;
42704;SDS011;28342;42.594;23.414;2023-03-24T16:02:02;32.97;;;17.77;;
42704;SDS011;28342;42.594;23.414;2023-03-24T16:04:34;16.90;;;12.13;;
42704;SDS011;28342;42.594;23.414;2023-03-24T16:06:59;13.68;;;9.50;;
42704;SDS011;28342;42.594;23.414;2023-03-24T16:09:32;14.45;;;10.45;;
42704;SDS011;28342;42.594;23.414;2023-03-24T16:12:01;15.40;;;9.77;;
42704;SDS011;28342;42.594;23.414;2023-03-24T16:14:28;11.88;;;7.63;;
42704;SDS011;28342;42.594;23.414;2023-03-24T16:17:00;13.02;;;6.82;;
42704;SDS011;28342;42.594;23.414;2023-03-24T16:19:27;9.52;;;6.53;;
42704;SDS011;28342;42.594;23.414;2023-03-24T16:21:53;12.45;;;6.05;;
42704;SDS011;28342;42.594;23.414;2023-03-24T16:24:19;12.35;;;6.32;;
42704;SDS011;28342;42.594;23.414;2023-03-24T16:26:45;11.48;;;5.82;;
42704;SDS011;28342;42.594;23.414;2023-03-24T16:31:44;9.30;;;4.75;;
42704;SDS011;28342;42.594;23.414;2023-03-24T16:34:17;16.98;;;9.52;;
42704;SDS011;28342;42.594;23.414;2023-03-24T16:36:44;12.02;;;6.18;;
42704;SDS011;28342;42.594;23.414;2023-03-24T16:39:21;15.20;;;7.55;;
42704;SDS011;28342;42.594;23.414;2023-03-24T16:41:52;11.00;;;5.60;;
42704;SDS011;28342;42.594;23.414;2023-03-24T16:44:20;13.73;;;7.05;;
42704;SDS011;28342;42.594;23.414;2023-03-24T16:46:47;12.57;;;7.88;;
42704;SDS011;28342;42.594;23.414;2023-03-24T16:49:16;17.48;;;8.55;;
42704;SDS011;28342;42.594;23.414;2023-03-24T16:51:42;22.52;;;10.38;;
42704;SDS011;28342;42.594;23.414;2023-03-24T16:54:09;15.57;;;7.63;;
42704;SDS011;28342;42.594;23.414;2023-03-24T16:56:36;11.38;;;7.25;;
42704;SDS011;28342;42.594;23.414;2023-03-24T16:59:02;18.55;;;8.50;;
42704;SDS011;28342;42.594;23.414;2023-03-24T17:01:35;14.55;;;6.35;;
42704;SDS011;28342;42.594;23.414;2023-03-24T17:06:40;13.13;;;7.22;;
42704;SDS011;28342;42.594;23.414;2023-03-24T17:09:12;14.65;;;6.65;;
42704;SDS011;28342;42.594;23.414;2023-03-24T17:11:42;13.43;;;6.15;;
42704;SDS011;28342;42.594;23.414;2023-03-24T17:14:11;16.33;;;8.93;;
42704;SDS011;28342;42.594;23.414;2023-03-24T17:16:37;14.77;;;7.03;;
42704;SDS011;28342;42.594;23.414;2023-03-24T17:19:13;14.18;;;7.50;;
42704;SDS011;28342;42.594;23.414;2023-03-24T17:22:14;15.52;;;6.30;;
42704;SDS011;28342;42.594;23.414;2023-03-24T17:27:02;12.55;;;7.75;;
42704;SDS011;28342;42.594;23.414;2023-03-24T17:29:35;14.65;;;8.45;;
42704;SDS011;28342;42.594;23.414;2023-03-24T17:32:01;13.15;;;8.07;;
42704;SDS011;28342;42.594;23.414;2023-03-24T17:34:27;10.70;;;6.97;;
42704;SDS011;28342;42.594;23.414;2023-03-24T17:36:53;11.63;;;7.13;;
42704;SDS011;28342;42.594;23.414;2023-03-24T17:39:22;12.00;;;7.32;;
42704;SDS011;28342;42.594;23.414;2023-03-24T17:41:48;17.70;;;8.90;;
42704;SDS011;28342;42.594;23.414;2023-03-24T17:44:15;16.67;;;9.32;;
42704;SDS011;28342;42.594;23.414;2023-03-24T17:46:41;23.88;;;10.98;;
42704;SDS011;28342;42.594;23.414;2023-03-24T17:49:06;13.20;;;9.05;;
42704;SDS011;28342;42.594;23.414;2023-03-24T17:51:32;16.50;;;8.40;;
42704;SDS011;28342;42.594;23.414;2023-03-24T17:53:57;13.95;;;7.75;;
42704;SDS011;28342;42.594;23.414;2023-03-24T17:56:23;18.50;;;10.35;;
42704;SDS011;28342;42.594;23.414;2023-03-24T17:58:49;16.88;;;9.10;;
42704;SDS011;28342;42.594;23.414;2023-03-24T18:01:18;13.55;;;7.88;;
42704;SDS011;28342;42.594;23.414;2023-03-24T18:03:45;14.20;;;7.50;;
42704;SDS011;28342;42.594;23.414;2023-03-24T18:06:16;17.75;;;8.35;;
42704;SDS011;28342;42.594;23.414;2023-03-24T18:08:41;14.25;;;9.13;;
42704;SDS011;28342;42.594;23.414;2023-03-24T18:11:09;15.02;;;9.52;;
42704;SDS011;28342;42.594;23.414;2023-03-24T18:13:36;10.70;;;7.50;;
42704;SDS011;28342;42.594;23.414;2023-03-24T18:16:03;15.75;;;9.18;;
42704;SDS011;28342;42.594;23.414;2023-03-24T18:18:32;15.45;;;7.93;;
42704;SDS011;28342;42.594;23.414;2023-03-24T18:21:02;17.75;;;8.25;;
42704;SDS011;28342;42.594;23.414;2023-03-24T18:23:29;18.00;;;6.95;;
42704;SDS011;28342;42.594;23.414;2023-03-24T18:25:57;14.70;;;7.72;;
42704;SDS011;28342;42.594;23.414;2023-03-24T18:28:24;14.45;;;7.65;;
42704;SDS011;28342;42.594;23.414;2023-03-24T18:30:50;10.55;;;7.97;;
42704;SDS011;28342;42.594;23.414;2023-03-24T18:33:17;12.73;;;7.88;;
42704;SDS011;28342;42.594;23.414;2023-03-24T18:35:50;9.35;;;7.03;;
42704;SDS011;28342;42.594;23.414;2023-03-24T18:38:18;12.90;;;7.47;;
42704;SDS011;28342;42.594;23.414;2023-03-24T18:41:00;12.52;;;7.40;;
42704;SDS011;28342;42.594;23.414;2023-03-24T18:43:29;13.00;;;8.55;;
42704;SDS011;28342;42.594;23.414;2023-03-24T18:45:59;14.05;;;7.28;;
42704;SDS011;28342;42.594;23.414;2023-03-24T18:48:35;9.70;;;7.18;;
42704;SDS011;28342;42.594;23.414;2023-03-24T18:51:02;9.82;;;7.10;;
42704;SDS011;28342;42.594;23.414;2023-03-24T18:53:29;10.25;;;6.88;;
42704;SDS011;28342;42.594;23.414;2023-03-24T18:55:58;9.45;;;6.97;;
42704;SDS011;28342;42.594;23.414;2023-03-24T18:58:25;9.40;;;6.15;;
42704;SDS011;28342;42.594;23.414;2023-03-24T19:01:07;10.82;;;6.35;;
42704;SDS011;28342;42.594;23.414;2023-03-24T19:03:39;13.63;;;6.07;;
42704;SDS011;28342;42.594;23.414;2023-03-24T19:06:07;9.75;;;6.60;;
42704;SDS011;28342;42.594;23.414;2023-03-24T19:08:35;16.48;;;7.53;;
42704;SDS011;28342;42.594;23.414;2023-03-24T19:11:03;10.02;;;6.43;;
42704;SDS011;28342;42.594;23.414;2023-03-24T19:13:28;14.55;;;7.03;;
42704;SDS011;28342;42.594;23.414;2023-03-24T19:15:55;10.07;;;6.53;;
42704;SDS011;28342;42.594;23.414;2023-03-24T19:18:22;11.50;;;6.50;;
42704;SDS011;28342;42.594;23.414;2023-03-24T19:21:23;11.85;;;6.70;;
42704;SDS011;28342;42.594;23.414;2023-03-24T19:23:54;13.05;;;7.07;;
42704;SDS011;28342;42.594;23.414;2023-03-24T19:26:21;12.35;;;7.13;;